Terminal Aerodrome Forecast
Issued by NWS

Home | Current Version | Previous Version | Text Only | Print | Product List | Glossary On
Versions: 1 2 3 4 5 6 7 8 9 10 11 12 13 14 15 16 17 18
124
FTUS45 KTFX 240540
TAFBZN
TAF
KBZN 240540Z 2406/2506 08007KT P6SM VCSH SCT025 BKN040
      TEMPO 2406/2409 -SHRA BKN030
     FM240900 VRB05KT P6SM SCT040 BKN070
     FM241400 VRB05KT P6SM BKN100
     FM241700 29008KT P6SM SCT030 BKN060 PROB30 2422/2502 -SHRA
      BKN040=

USA.gov is the U.S. government's official web portal to all federal, state and local government web resources and services.